Kenmare, ND

5:34 AM CST on March 05, 2015 (GMT -0600)
RAWS LOSTWOOD ND US | Change Station
CLOSE
Current Station
Personal Weather Station
Location: Powers Lake, ND
Elevation: 2270 ft
Nearby Weather Stations
Active Advisory: Wind Chill Advisory

Elev 2270 ft 48.65 °N, 102.41 °W | Updated 37 minutes ago

Clear
Clear
-7 °F
Feels Like -7 °F
N
0
Wind Variable Wind from North
Gusts 0.0 mph

Today
High -- | Low -- °F
--% Chance of Precip.
Yesterday
High -- | Low -- °F
Precip. -- in
7:22 AM 6:38 PM
Full, 100% visible
Pressure 30.30 in
Visibility 10.0 miles
Clouds Clear
Windchill -7 °F
Dew Point -16 °F
Humidity 64%
Rainfall in
Snow Depth Not available.
UV 0 out of 12
Pollen .10 out of 12
Air Quality Not available.
Flu Activity Not available.
METAR KMIB 051058Z AUTO 21009KT 10SM CLR M20/M24 A3014 RMK AO2 SLP261 T11981241 $

More Conditions Fewer Conditions

Pressure 30.30 in
Visibility 10.0 miles
Clouds Clear
Windchill -7 °F
Dew Point -16 °F
Humidity 64%
Rainfall in
Snow Depth Not available.
UV 0 out of 12
Pollen .10 out of 12
Air Quality Not available.
Flu Activity Not available.
METAR KMIB 051058Z AUTO 21009KT 10SM CLR M20/M24 A3014 RMK AO2 SLP261 T11981241 $

More Conditions Fewer Conditions

10-Day Weather Forecast

Almanac

Astronomy

Mar. 05, 2015 Rise Set
Actual Time
Civil Twilight
Nautical Twilight
Astronomical Twilight
Moon
Length of Visible Light
Length of Day
Tomorrow will be .
, % of the Moon is Illuminated

Today's Extremes

State Highs State Lows

Community

WunderPhotos

Upload Photos

1,802,716 photos uploaded!

WunderBlogs® & News

Nearby

Air Quality

  Air Quality AQ Index Pollutant
Not available.

Snow Depth

Station Depth Elevation

Earthquake Activity

City Distance Mag. Time & Date
Minimum magnitude displayed is 2.5.

Coastal Water Temperatures

Place Temperature

Nearby Weather Stations

Wind Chill Advisory
Statement as of 3:27 AM CST on March 05, 2015

... Wind Chill Advisory remains in effect until 10 am CST this
morning...

* wind chill values... around 30 below zero.

* Other impacts... frost bite possible in under 30 minutes to
exposed skin.

Precautionary/preparedness actions...

A Wind Chill Advisory means the combination of wind and very cold
air will create low wind chills. This will result in frost bite
and lead to hypothermia if precautions are not taken.